createdAt,value
2019-06-20T00:02:06.841Z,5.67
2019-06-20T00:04:37.410Z,5.92
2019-06-20T00:07:06.073Z,5.95
2019-06-20T00:09:34.817Z,5.95
2019-06-20T00:12:03.473Z,6.45
2019-06-20T00:14:32.189Z,6.08
2019-06-20T00:17:00.845Z,6.33
2019-06-20T00:19:29.635Z,6.53
2019-06-20T00:21:58.494Z,5.75
2019-06-20T00:24:27.222Z,6.50
2019-06-20T00:26:55.942Z,6.37
2019-06-20T00:29:24.772Z,6.80
2019-06-20T00:31:53.496Z,6.47
2019-06-20T00:34:22.218Z,6.60
2019-06-20T00:36:51.467Z,5.83
2019-06-20T00:39:20.393Z,6.45
2019-06-20T00:41:49.116Z,5.75
2019-06-20T00:44:17.831Z,5.87
2019-06-20T00:46:46.573Z,6.70
2019-06-20T00:49:15.300Z,6.05
2019-06-20T00:51:44.044Z,6.08
2019-06-20T00:54:12.760Z,6.35
2019-06-20T00:56:41.488Z,6.15
2019-06-20T00:59:10.221Z,6.05
2019-06-20T01:01:38.938Z,6.40
2019-06-20T01:04:08.330Z,5.65
2019-06-20T01:06:37.167Z,6.00
2019-06-20T01:09:08.393Z,5.70
2019-06-20T01:11:37.224Z,5.60
2019-06-20T01:14:05.922Z,5.90
2019-06-20T01:16:34.653Z,5.67
2019-06-20T01:19:03.452Z,5.87
2019-06-20T01:21:51.447Z,6.20
2019-06-20T01:24:20.165Z,6.65
2019-06-20T01:26:48.895Z,6.80
2019-06-20T01:29:17.609Z,6.10
2019-06-20T01:31:46.365Z,6.05
2019-06-20T01:34:15.084Z,5.85
2019-06-20T01:36:43.844Z,6.05
2019-06-20T01:39:12.562Z,6.10
2019-06-20T01:41:41.284Z,6.05
2019-06-20T01:44:10.067Z,5.90
2019-06-20T01:46:38.781Z,5.40
2019-06-20T01:49:07.504Z,6.28
2019-06-20T01:51:36.244Z,5.92
2019-06-20T01:54:05.086Z,5.72
2019-06-20T01:56:33.795Z,5.55
2019-06-20T01:59:02.645Z,6.28
2019-06-20T02:01:31.402Z,5.17
2019-06-20T02:04:00.120Z,5.53
2019-06-20T02:06:28.850Z,5.80
2019-06-20T02:08:57.582Z,5.40
2019-06-20T02:11:26.291Z,6.00
2019-06-20T02:14:06.763Z,5.22
2019-06-20T02:16:25.400Z,5.15
2019-06-20T02:18:54.120Z,5.08
2019-06-20T02:21:22.873Z,5.35
2019-06-20T02:23:51.604Z,5.78
2019-06-20T02:26:20.331Z,5.58
2019-06-20T02:28:48.977Z,5.05
2019-06-20T02:31:17.705Z,5.47
2019-06-20T02:33:46.453Z,5.47
2019-06-20T02:36:15.176Z,5.50
2019-06-20T02:38:43.894Z,5.40
2019-06-20T02:41:12.616Z,5.20
2019-06-20T02:43:41.393Z,5.30
2019-06-20T02:46:10.232Z,5.80
2019-06-20T02:48:38.876Z,5.15
2019-06-20T02:51:07.606Z,4.70
2019-06-20T02:53:36.616Z,4.53
2019-06-20T02:56:05.468Z,4.92
2019-06-20T02:58:34.201Z,5.10
2019-06-20T03:01:02.935Z,5.10
2019-06-20T03:03:31.652Z,4.58
2019-06-20T03:06:00.375Z,4.72
2019-06-20T03:08:29.202Z,4.50
2019-06-20T03:10:58.429Z,4.78
2019-06-20T03:13:27.151Z,4.85
2019-06-20T03:15:55.898Z,4.10
2019-06-20T03:18:24.613Z,4.60
2019-06-20T03:20:53.327Z,4.00
2019-06-20T03:23:22.051Z,4.95
2019-06-20T03:25:50.777Z,4.53
2019-06-20T03:28:19.501Z,4.50
2019-06-20T03:30:48.225Z,4.20
2019-06-20T03:33:16.983Z,4.55
2019-06-20T03:35:45.694Z,4.30
2019-06-20T03:38:14.411Z,3.70
2019-06-20T03:40:43.140Z,4.15
2019-06-20T03:43:11.862Z,4.10
2019-06-20T03:45:40.608Z,4.30
2019-06-20T03:48:09.328Z,4.12
2019-06-20T03:50:37.980Z,3.80
2019-06-20T03:53:06.691Z,4.15
2019-06-20T03:55:35.414Z,3.83
2019-06-20T03:58:04.300Z,3.90
2019-06-20T04:00:34.614Z,3.70
2019-06-20T04:03:04.932Z,4.30
2019-06-20T04:05:33.860Z,3.90
2019-06-20T04:08:02.580Z,4.12
2019-06-20T04:10:31.301Z,3.77
2019-06-20T04:13:00.025Z,3.90
2019-06-20T04:15:28.784Z,4.22
2019-06-20T04:17:57.501Z,3.98
2019-06-20T04:20:26.212Z,3.83
2019-06-20T04:22:54.939Z,3.72
2019-06-20T04:25:23.669Z,3.90
2019-06-20T04:27:52.411Z,3.58
2019-06-20T04:30:21.140Z,3.67
2019-06-20T04:32:49.847Z,3.75
2019-06-20T04:35:37.858Z,3.50
2019-06-20T04:38:06.578Z,3.95
2019-06-20T04:40:35.296Z,4.10
2019-06-20T04:43:04.028Z,3.80
2019-06-20T04:45:35.699Z,3.52
2019-06-20T04:48:04.752Z,3.85
2019-06-20T04:50:33.476Z,3.52
2019-06-20T04:53:02.206Z,3.40
2019-06-20T04:55:31.112Z,3.52
2019-06-20T04:57:59.878Z,3.15
2019-06-20T05:00:28.601Z,2.90
2019-06-20T05:02:57.324Z,2.98
2019-06-20T05:05:26.037Z,3.20
2019-06-20T05:07:54.766Z,3.60
2019-06-20T05:10:23.485Z,3.35
2019-06-20T05:12:55.717Z,3.35
2019-06-20T05:15:22.609Z,3.95
2019-06-20T05:17:51.485Z,3.15
2019-06-20T05:20:20.265Z,3.27
2019-06-20T05:22:49.016Z,3.42
2019-06-20T05:25:17.728Z,3.25
2019-06-20T05:27:46.412Z,3.12
2019-06-20T05:30:15.432Z,3.70
2019-06-20T05:32:44.195Z,2.70
2019-06-20T05:35:12.956Z,3.35
2019-06-20T05:37:41.680Z,3.05
2019-06-20T05:40:10.691Z,3.25
2019-06-20T05:42:39.409Z,3.17
2019-06-20T05:45:14.236Z,3.40
2019-06-20T05:47:42.948Z,3.20
2019-06-20T05:50:13.297Z,2.90
2019-06-20T05:52:42.113Z,4.30
2019-06-20T05:55:10.940Z,3.30
2019-06-20T05:57:40.170Z,3.00
2019-06-20T06:00:10.073Z,3.52
2019-06-20T06:02:39.942Z,3.22
2019-06-20T06:05:08.910Z,3.22
2019-06-20T06:07:37.643Z,3.08
2019-06-20T06:10:08.188Z,3.02
2019-06-20T06:12:36.921Z,3.10
2019-06-20T06:15:09.723Z,3.40
2019-06-20T06:17:38.666Z,3.05
2019-06-20T06:20:08.565Z,3.80
2019-06-20T06:22:37.305Z,3.55
2019-06-20T06:25:07.472Z,3.50
2019-06-20T06:27:36.196Z,3.55
2019-06-20T06:30:12.600Z,3.50
2019-06-20T06:32:41.339Z,3.33
2019-06-20T06:35:10.889Z,4.85
2019-06-20T06:37:40.215Z,3.42
2019-06-20T06:40:11.033Z,4.03
2019-06-20T06:42:39.753Z,3.87
2019-06-20T06:45:09.483Z,3.72
2019-06-20T06:47:38.209Z,4.53
2019-06-20T06:50:08.202Z,3.77
2019-06-20T06:52:36.954Z,3.55
2019-06-20T06:55:06.981Z,3.87
2019-06-20T06:57:35.806Z,3.77
2019-06-20T07:00:09.776Z,3.85
2019-06-20T07:02:38.496Z,6.03
2019-06-20T07:05:08.764Z,3.10
2019-06-20T07:07:37.512Z,3.70
2019-06-20T07:10:07.137Z,3.35
2019-06-20T07:12:35.861Z,3.45
2019-06-20T07:15:07.166Z,3.50
2019-06-20T07:17:35.898Z,3.72
2019-06-20T07:20:06.997Z,3.40
2019-06-20T07:22:36.059Z,3.60
2019-06-20T07:25:17.614Z,3.60
2019-06-20T07:27:46.870Z,3.90
2019-06-20T07:30:16.017Z,3.42
2019-06-20T07:32:44.725Z,4.10
2019-06-20T07:35:13.851Z,3.62
2019-06-20T07:37:42.569Z,3.83
2019-06-20T07:40:12.040Z,3.50
2019-06-20T07:42:40.756Z,3.60
2019-06-20T07:45:10.895Z,3.98
2019-06-20T07:47:39.617Z,3.65
2019-06-20T07:50:08.942Z,2.58
2019-06-20T07:52:37.693Z,3.42
2019-06-20T07:55:08.120Z,2.70
2019-06-20T07:57:36.848Z,3.02
2019-06-20T08:00:09.643Z,2.95
2019-06-20T08:02:38.349Z,2.75
2019-06-20T08:05:08.093Z,3.17
2019-06-20T08:07:36.828Z,3.35
2019-06-20T08:10:18.000Z,3.12
2019-06-20T08:12:46.730Z,2.87
2019-06-20T08:15:17.416Z,3.10
2019-06-20T08:17:46.140Z,3.10
2019-06-20T08:20:16.445Z,2.50
2019-06-20T08:22:45.207Z,2.45
2019-06-20T08:25:14.522Z,2.70
2019-06-20T08:27:55.992Z,3.22
2019-06-20T08:30:31.490Z,2.90
2019-06-20T08:33:01.811Z,2.58
2019-06-20T08:35:31.767Z,3.02
2019-06-20T08:38:01.298Z,2.90
2019-06-20T08:40:33.374Z,2.70
2019-06-20T08:43:02.276Z,2.87
2019-06-20T08:45:34.118Z,2.30
2019-06-20T08:50:31.853Z,2.70
2019-06-20T08:53:01.651Z,2.70
2019-06-20T08:55:30.701Z,3.08
2019-06-20T08:58:01.016Z,3.02
2019-06-20T09:00:31.021Z,3.12
2019-06-20T09:03:00.462Z,2.65
2019-06-20T09:05:30.845Z,2.60
2019-06-20T09:10:41.060Z,2.60
2019-06-20T09:13:12.188Z,2.72
2019-06-20T09:15:41.540Z,2.98
2019-06-20T09:18:10.292Z,2.65
2019-06-20T09:20:39.736Z,2.75
2019-06-20T09:23:08.457Z,2.70
2019-06-20T09:25:37.279Z,3.30
2019-06-20T09:28:06.592Z,3.55
2019-06-20T09:30:36.513Z,3.27
2019-06-20T09:33:05.771Z,2.83
2019-06-20T09:35:34.488Z,2.77
2019-06-20T09:38:03.431Z,2.87
2019-06-20T09:40:32.230Z,2.95
2019-06-20T09:43:00.968Z,3.00
2019-06-20T09:45:29.673Z,2.70
2019-06-20T09:47:58.401Z,2.80
2019-06-20T09:50:27.335Z,2.47
2019-06-20T09:52:56.645Z,2.60
2019-06-20T09:55:25.683Z,3.15
2019-06-20T09:57:55.768Z,2.55
2019-06-20T10:00:26.829Z,2.80
2019-06-20T10:02:56.276Z,2.80
2019-06-20T10:05:25.941Z,3.35
2019-06-20T10:07:54.730Z,2.90
2019-06-20T10:10:28.368Z,2.47
2019-06-20T10:12:57.587Z,3.08
2019-06-20T10:15:29.260Z,3.35
2019-06-20T10:17:58.197Z,2.80
2019-06-20T10:20:27.098Z,2.83
2019-06-20T10:22:57.301Z,3.12
2019-06-20T10:25:26.202Z,3.10
2019-06-20T10:27:54.921Z,2.92
2019-06-20T10:30:24.839Z,2.40
2019-06-20T10:32:53.578Z,3.33
2019-06-20T10:35:23.213Z,3.00
2019-06-20T10:37:52.961Z,2.95
2019-06-20T10:40:22.416Z,3.00
2019-06-20T10:42:52.770Z,2.72
2019-06-20T10:45:23.084Z,3.05
2019-06-20T10:47:52.892Z,3.10
2019-06-20T10:50:22.308Z,2.80
2019-06-20T10:52:51.855Z,3.00
2019-06-20T10:55:20.757Z,2.92
2019-06-20T10:57:49.968Z,2.90
2019-06-20T11:00:30.189Z,2.65
2019-06-20T11:02:51.278Z,2.87
2019-06-20T11:05:20.157Z,3.12
2019-06-20T11:07:49.949Z,3.00
2019-06-20T11:10:19.611Z,3.22
2019-06-20T11:12:54.854Z,3.30
2019-06-20T11:15:20.349Z,3.35
2019-06-20T11:17:49.103Z,3.52
2019-06-20T11:20:18.333Z,3.27
2019-06-20T11:22:47.793Z,3.25
2019-06-20T11:25:19.317Z,3.37
2019-06-20T11:27:47.802Z,3.13
2019-06-20T11:30:27.553Z,3.22
2019-06-20T11:32:56.289Z,3.77
2019-06-20T11:35:25.003Z,3.58
2019-06-20T11:37:53.725Z,3.27
2019-06-20T11:40:22.857Z,3.37
2019-06-20T11:42:51.731Z,3.10
2019-06-20T11:45:21.115Z,3.27
2019-06-20T11:47:49.841Z,3.37
2019-06-20T11:50:20.224Z,3.33
2019-06-20T11:52:48.970Z,3.60
2019-06-20T11:55:18.711Z,2.90
2019-06-20T11:57:47.591Z,3.30
2019-06-20T12:00:16.940Z,3.40
2019-06-20T12:02:46.200Z,3.35
2019-06-20T12:05:16.754Z,3.22
2019-06-20T12:07:47.447Z,3.20
2019-06-20T12:10:16.420Z,2.92
2019-06-20T12:12:45.136Z,3.10
2019-06-20T12:15:14.561Z,3.55
2019-06-20T12:17:43.832Z,3.55
2019-06-20T12:20:15.994Z,3.40
2019-06-20T12:22:45.037Z,2.87
2019-06-20T12:25:15.711Z,2.87
2019-06-20T12:27:45.373Z,4.15
2019-06-20T12:30:19.141Z,3.85
2019-06-20T12:32:49.175Z,3.62
2019-06-20T12:35:18.188Z,4.17
2019-06-20T12:37:47.790Z,3.75
2019-06-20T12:40:17.338Z,4.17
2019-06-20T12:42:46.746Z,3.75
2019-06-20T12:45:16.303Z,2.98
2019-06-20T12:47:46.062Z,3.67
2019-06-20T12:50:15.564Z,3.83
2019-06-20T12:52:45.376Z,3.67
2019-06-20T12:55:14.536Z,3.50
2019-06-20T12:57:44.157Z,3.50
2019-06-20T13:00:15.197Z,3.47
2019-06-20T13:02:45.362Z,3.65
2019-06-20T13:05:15.929Z,3.90
2019-06-20T13:07:46.234Z,4.00
2019-06-20T13:10:15.830Z,3.70
2019-06-20T13:12:44.541Z,3.50
2019-06-20T13:15:13.494Z,3.25
2019-06-20T13:17:43.643Z,4.00
2019-06-20T13:20:14.588Z,3.98
2019-06-20T13:22:44.635Z,3.40
2019-06-20T13:25:14.207Z,3.55
2019-06-20T13:27:43.447Z,3.52
2019-06-20T13:30:13.063Z,3.40
2019-06-20T13:32:43.343Z,4.10
2019-06-20T13:35:14.002Z,3.80
2019-06-20T13:37:43.490Z,3.75
2019-06-20T13:40:13.900Z,3.72
2019-06-20T13:42:44.170Z,3.42
2019-06-20T13:45:22.307Z,3.80
2019-06-20T13:47:51.336Z,3.72
2019-06-20T13:50:22.662Z,3.83
2019-06-20T13:52:52.085Z,3.35
2019-06-20T13:55:20.812Z,3.47
2019-06-20T13:57:49.599Z,3.70
2019-06-20T14:00:20.876Z,3.98
2019-06-20T14:02:51.311Z,3.83
2019-06-20T14:05:20.372Z,3.83
2019-06-20T14:07:53.177Z,4.03
2019-06-20T14:10:19.569Z,3.72
2019-06-20T14:12:48.753Z,3.62
2019-06-20T14:15:18.319Z,3.45
2019-06-20T14:17:47.609Z,4.05
2019-06-20T14:20:17.972Z,4.00
2019-06-20T14:22:46.692Z,3.67
2019-06-20T14:25:15.888Z,4.45
2019-06-20T14:27:46.020Z,4.03
2019-06-20T14:30:16.394Z,4.12
2019-06-20T14:32:45.123Z,4.33
2019-06-20T14:35:13.940Z,4.08
2019-06-20T14:37:44.279Z,4.80
2019-06-20T14:40:13.334Z,4.78
2019-06-20T14:42:42.975Z,4.97
2019-06-20T14:45:12.536Z,4.67
2019-06-20T14:47:41.267Z,4.92
2019-06-20T14:50:10.576Z,4.37
2019-06-20T14:52:39.345Z,4.30
2019-06-20T14:55:09.235Z,4.17
2019-06-20T14:57:38.091Z,4.87
2019-06-20T15:00:08.106Z,4.22
2019-06-20T15:02:38.866Z,4.22
2019-06-20T15:05:10.428Z,3.70
2019-06-20T15:07:39.253Z,3.40
2019-06-20T15:10:08.185Z,4.95
2019-06-20T15:12:36.914Z,4.35
2019-06-20T15:15:08.863Z,4.92
2019-06-20T15:20:06.865Z,4.80
2019-06-20T15:22:35.589Z,4.58
2019-06-20T15:25:08.582Z,5.35
2019-06-20T15:27:37.301Z,4.33
2019-06-20T15:30:07.788Z,4.20
2019-06-20T15:32:36.518Z,4.70
2019-06-20T15:35:10.296Z,5.22
2019-06-20T15:37:39.016Z,4.22
2019-06-20T15:40:09.845Z,4.60
2019-06-20T15:42:38.572Z,4.40
2019-06-20T15:45:08.210Z,4.65
2019-06-20T15:47:37.124Z,4.35
2019-06-20T15:50:08.429Z,4.37
2019-06-20T15:52:37.154Z,4.45
2019-06-20T15:55:06.999Z,4.05
2019-06-20T15:57:35.782Z,4.20
2019-06-20T16:00:10.014Z,4.22
2019-06-20T16:02:38.732Z,4.53
2019-06-20T16:05:09.380Z,4.37
2019-06-20T16:07:38.312Z,4.85
2019-06-20T16:10:08.848Z,4.30
2019-06-20T16:12:37.672Z,4.50
2019-06-20T16:15:08.460Z,4.20
2019-06-20T16:17:37.180Z,4.47
2019-06-20T16:20:07.704Z,4.90
2019-06-20T16:22:36.442Z,4.72
2019-06-20T16:25:06.599Z,4.47
2019-06-20T16:27:35.308Z,4.37
2019-06-20T16:30:06.605Z,4.30
2019-06-20T16:32:35.328Z,4.58
2019-06-20T16:35:06.344Z,4.60
2019-06-20T16:37:35.088Z,4.40
2019-06-20T16:40:05.488Z,4.55
2019-06-20T16:42:34.207Z,4.50
2019-06-20T16:45:02.968Z,5.00
2019-06-20T16:47:31.655Z,4.58
2019-06-20T16:50:00.545Z,4.53
2019-06-20T16:52:29.265Z,4.80
2019-06-20T16:54:58.026Z,4.65
2019-06-20T16:57:26.729Z,4.87
2019-06-20T16:59:55.472Z,4.90
2019-06-20T17:02:24.312Z,4.65
2019-06-20T17:04:55.764Z,5.33
2019-06-20T17:07:23.444Z,5.67
2019-06-20T17:09:52.167Z,5.65
2019-06-20T17:12:20.887Z,4.85
2019-06-20T17:14:49.642Z,5.55
2019-06-20T17:17:18.495Z,5.70
2019-06-20T17:19:47.282Z,4.37
2019-06-20T17:22:16.044Z,4.75
2019-06-20T17:24:44.753Z,5.37
2019-06-20T17:27:13.494Z,5.90
2019-06-20T17:29:42.246Z,7.75
2019-06-20T17:32:10.992Z,8.03
2019-06-20T17:34:39.727Z,7.80
2019-06-20T17:37:08.442Z,8.60
2019-06-20T17:39:37.179Z,10.08
2019-06-20T17:42:05.903Z,13.40
2019-06-20T17:44:34.626Z,10.23
2019-06-20T17:47:06.084Z,10.08
2019-06-20T17:49:34.834Z,9.20
2019-06-20T17:52:06.691Z,9.85
2019-06-20T17:54:35.428Z,10.23
2019-06-20T17:57:04.264Z,11.55
2019-06-20T17:59:34.678Z,10.28
2019-06-20T18:02:04.993Z,9.70
2019-06-20T18:04:33.727Z,8.93
2019-06-20T18:07:02.532Z,8.18
2019-06-20T18:09:31.310Z,8.90
2019-06-20T18:11:59.996Z,10.23
2019-06-20T18:14:28.732Z,10.10
2019-06-20T18:16:57.499Z,10.82
2019-06-20T18:19:26.231Z,12.25
2019-06-20T18:21:55.032Z,12.20
2019-06-20T18:24:23.758Z,13.00
2019-06-20T18:26:52.536Z,12.00
2019-06-20T18:29:21.275Z,14.07
2019-06-20T18:31:50.019Z,12.98
2019-06-20T18:34:29.643Z,12.45
2019-06-20T18:36:49.130Z,14.18
2019-06-20T18:39:17.926Z,16.00
2019-06-20T18:41:47.482Z,14.45
2019-06-20T18:44:16.265Z,13.95
2019-06-20T18:46:45.019Z,12.43
2019-06-20T18:49:13.777Z,14.18
2019-06-20T18:51:43.418Z,14.03
2019-06-20T18:54:12.191Z,15.72
2019-06-20T18:56:40.940Z,18.50
2019-06-20T18:59:09.677Z,17.80
2019-06-20T19:01:38.479Z,19.98
2019-06-20T19:04:07.224Z,17.77
2019-06-20T19:06:36.560Z,16.12
2019-06-20T19:09:09.783Z,13.85
2019-06-20T19:11:38.565Z,15.80
2019-06-20T19:14:07.313Z,18.17
2019-06-20T19:16:36.050Z,16.52
2019-06-20T19:19:05.070Z,14.47
2019-06-20T19:21:33.801Z,13.08
2019-06-20T19:24:02.565Z,13.48
2019-06-20T19:26:31.299Z,15.00
2019-06-20T19:29:00.024Z,12.93
2019-06-20T19:31:28.754Z,14.53
2019-06-20T19:33:57.518Z,16.32
2019-06-20T19:36:26.303Z,18.20
2019-06-20T19:38:55.024Z,15.98
2019-06-20T19:41:24.756Z,14.85
2019-06-20T19:43:54.774Z,12.55
2019-06-20T19:46:23.826Z,10.72
2019-06-20T19:48:52.548Z,11.03
2019-06-20T19:51:21.301Z,10.40
2019-06-20T19:53:50.018Z,9.95
2019-06-20T19:56:18.749Z,9.50
2019-06-20T19:58:47.519Z,10.32
2019-06-20T20:01:16.245Z,10.20
2019-06-20T20:03:44.985Z,9.48
2019-06-20T20:06:14.047Z,10.32
2019-06-20T20:08:42.779Z,11.45
2019-06-20T20:11:11.593Z,11.90
2019-06-20T20:13:40.341Z,10.60
2019-06-20T20:16:09.174Z,9.83
2019-06-20T20:18:37.965Z,12.90
2019-06-20T20:21:06.757Z,15.28
2019-06-20T20:23:35.479Z,15.98
2019-06-20T20:26:04.293Z,14.58
2019-06-20T20:28:33.020Z,14.13
2019-06-20T20:31:01.985Z,13.53
2019-06-20T20:33:30.706Z,13.20
2019-06-20T20:36:01.901Z,14.15
2019-06-20T20:38:30.141Z,12.75
2019-06-20T20:40:59.037Z,9.90
2019-06-20T20:43:27.787Z,9.40
2019-06-20T20:45:56.520Z,11.08
2019-06-20T20:48:25.241Z,9.48
2019-06-20T20:50:53.967Z,9.20
2019-06-20T20:53:22.697Z,9.20
2019-06-20T20:55:51.464Z,8.53
2019-06-20T20:58:20.299Z,8.60
2019-06-20T21:01:03.873Z,8.18
2019-06-20T21:03:34.510Z,8.28
2019-06-20T21:06:03.330Z,8.45
2019-06-20T21:08:32.937Z,7.30
2019-06-20T21:11:01.701Z,8.00
2019-06-20T21:13:30.470Z,8.68
2019-06-20T21:16:00.808Z,8.90
2019-06-20T21:18:29.576Z,8.50
2019-06-20T21:20:58.392Z,8.30
2019-06-20T21:23:27.528Z,8.05
2019-06-20T21:25:56.263Z,8.60
2019-06-20T21:28:24.980Z,8.73
2019-06-20T21:30:53.740Z,8.93
2019-06-20T21:33:22.474Z,10.13
2019-06-20T21:36:06.952Z,9.80
2019-06-20T21:38:21.495Z,9.40
2019-06-20T21:40:50.220Z,9.58
2019-06-20T21:43:18.936Z,11.10
2019-06-20T21:45:47.668Z,10.05
2019-06-20T21:48:16.424Z,9.40
2019-06-20T21:50:45.944Z,9.50
2019-06-20T21:53:14.691Z,9.93
2019-06-20T21:55:43.418Z,10.05
2019-06-20T21:58:12.149Z,10.18
2019-06-20T22:00:44.857Z,10.40
2019-06-20T22:03:13.762Z,11.43
2019-06-20T22:05:42.504Z,10.53
2019-06-20T22:08:11.343Z,10.45
2019-06-20T22:10:40.091Z,10.68
2019-06-20T22:13:08.972Z,10.48
2019-06-20T22:15:37.900Z,10.38
2019-06-20T22:18:06.720Z,12.40
2019-06-20T22:20:35.452Z,11.68
2019-06-20T22:23:04.713Z,11.33
2019-06-20T22:25:33.441Z,10.98
2019-06-20T22:28:02.360Z,10.88
2019-06-20T22:30:45.810Z,11.38
2019-06-20T22:33:14.534Z,11.35
2019-06-20T22:35:45.877Z,12.00
2019-06-20T22:38:14.766Z,11.65
2019-06-20T22:40:43.609Z,12.40
2019-06-20T22:43:12.427Z,11.80
2019-06-20T22:45:41.156Z,12.73
2019-06-20T22:48:09.898Z,12.07
2019-06-20T22:50:38.616Z,11.78
2019-06-20T22:53:07.349Z,12.23
2019-06-20T22:55:36.271Z,13.15
2019-06-20T22:58:06.027Z,13.70
2019-06-20T23:00:34.953Z,15.63
2019-06-20T23:03:04.884Z,15.23
2019-06-20T23:05:33.608Z,15.23
2019-06-20T23:08:02.528Z,14.93
2019-06-20T23:10:31.262Z,16.50
2019-06-20T23:12:59.988Z,16.77
2019-06-20T23:15:28.751Z,17.92
2019-06-20T23:17:57.471Z,16.73
2019-06-20T23:20:26.300Z,15.08
2019-06-20T23:22:55.032Z,15.48
2019-06-20T23:25:23.756Z,15.85
2019-06-20T23:27:52.480Z,15.35
2019-06-20T23:30:21.618Z,15.48
2019-06-20T23:32:50.374Z,17.87
2019-06-20T23:35:19.104Z,17.77
2019-06-20T23:37:47.872Z,19.95
2019-06-20T23:40:16.668Z,19.35
2019-06-20T23:42:45.395Z,19.70
2019-06-20T23:45:14.717Z,20.05
2019-06-20T23:47:43.438Z,21.12
2019-06-20T23:50:14.449Z,20.70
2019-06-20T23:52:44.776Z,18.82
2019-06-20T23:55:13.532Z,20.75
2019-06-20T23:57:42.247Z,22.25
